sensor_id;sensor_type;location;lat;lon;timestamp;P1;durP1;ratioP1;P2;durP2;ratioP2
20653;SDS011;21083;50.898;4.902;2024-02-26T00:01:51;4.55;;;1.30;;
20653;SDS011;21083;50.898;4.902;2024-02-26T00:04:18;4.45;;;1.20;;
20653;SDS011;21083;50.898;4.902;2024-02-26T00:06:45;2.03;;;1.08;;
20653;SDS011;21083;50.898;4.902;2024-02-26T00:09:13;4.28;;;1.20;;
20653;SDS011;21083;50.898;4.902;2024-02-26T00:11:40;3.72;;;1.40;;
20653;SDS011;21083;50.898;4.902;2024-02-26T00:14:07;10.20;;;2.30;;
20653;SDS011;21083;50.898;4.902;2024-02-26T00:16:34;3.95;;;1.40;;
20653;SDS011;21083;50.898;4.902;2024-02-26T00:19:02;5.50;;;1.75;;
20653;SDS011;21083;50.898;4.902;2024-02-26T00:21:29;4.55;;;1.52;;
20653;SDS011;21083;50.898;4.902;2024-02-26T00:23:56;5.65;;;1.45;;
20653;SDS011;21083;50.898;4.902;2024-02-26T00:26:23;5.88;;;1.40;;
20653;SDS011;21083;50.898;4.902;2024-02-26T00:28:50;3.53;;;1.10;;
20653;SDS011;21083;50.898;4.902;2024-02-26T00:31:17;4.47;;;1.40;;
20653;SDS011;21083;50.898;4.902;2024-02-26T00:33:44;8.15;;;1.42;;
20653;SDS011;21083;50.898;4.902;2024-02-26T00:36:12;3.67;;;1.33;;
20653;SDS011;21083;50.898;4.902;2024-02-26T00:38:39;5.63;;;1.45;;
20653;SDS011;21083;50.898;4.902;2024-02-26T00:41:08;3.70;;;1.30;;
20653;SDS011;21083;50.898;4.902;2024-02-26T00:43:35;4.53;;;1.65;;
20653;SDS011;21083;50.898;4.902;2024-02-26T00:46:03;4.63;;;1.25;;
20653;SDS011;21083;50.898;4.902;2024-02-26T00:48:30;3.60;;;1.30;;
20653;SDS011;21083;50.898;4.902;2024-02-26T00:50:57;5.50;;;1.60;;
20653;SDS011;21083;50.898;4.902;2024-02-26T00:53:25;3.25;;;1.10;;
20653;SDS011;21083;50.898;4.902;2024-02-26T00:55:53;8.25;;;1.30;;
20653;SDS011;21083;50.898;4.902;2024-02-26T00:58:20;4.38;;;1.35;;
20653;SDS011;21083;50.898;4.902;2024-02-26T01:00:48;7.57;;;1.50;;
20653;SDS011;21083;50.898;4.902;2024-02-26T01:03:15;5.03;;;1.27;;
20653;SDS011;21083;50.898;4.902;2024-02-26T01:05:42;8.52;;;1.60;;
20653;SDS011;21083;50.898;4.902;2024-02-26T01:08:09;4.85;;;1.40;;
20653;SDS011;21083;50.898;4.902;2024-02-26T01:10:37;2.53;;;1.30;;
20653;SDS011;21083;50.898;4.902;2024-02-26T01:13:04;4.28;;;1.50;;
20653;SDS011;21083;50.898;4.902;2024-02-26T01:15:32;5.47;;;1.33;;
20653;SDS011;21083;50.898;4.902;2024-02-26T01:17:59;5.10;;;1.58;;
20653;SDS011;21083;50.898;4.902;2024-02-26T01:20:26;4.95;;;1.50;;
20653;SDS011;21083;50.898;4.902;2024-02-26T01:22:53;6.50;;;1.30;;
20653;SDS011;21083;50.898;4.902;2024-02-26T01:25:20;3.42;;;1.20;;
20653;SDS011;21083;50.898;4.902;2024-02-26T01:27:49;4.97;;;1.20;;
20653;SDS011;21083;50.898;4.902;2024-02-26T01:30:16;8.65;;;1.73;;
20653;SDS011;21083;50.898;4.902;2024-02-26T01:32:43;4.05;;;1.40;;
20653;SDS011;21083;50.898;4.902;2024-02-26T01:35:10;2.75;;;1.15;;
20653;SDS011;21083;50.898;4.902;2024-02-26T01:37:37;2.90;;;1.52;;
20653;SDS011;21083;50.898;4.902;2024-02-26T01:40:05;3.30;;;1.20;;
20653;SDS011;21083;50.898;4.902;2024-02-26T01:42:34;3.60;;;1.50;;
20653;SDS011;21083;50.898;4.902;2024-02-26T01:45:05;5.30;;;1.00;;
20653;SDS011;21083;50.898;4.902;2024-02-26T01:47:40;5.35;;;1.20;;
20653;SDS011;21083;50.898;4.902;2024-02-26T01:50:08;3.65;;;1.10;;
20653;SDS011;21083;50.898;4.902;2024-02-26T01:52:35;3.33;;;1.30;;
20653;SDS011;21083;50.898;4.902;2024-02-26T01:55:02;3.95;;;1.20;;
20653;SDS011;21083;50.898;4.902;2024-02-26T01:57:29;4.38;;;1.10;;
20653;SDS011;21083;50.898;4.902;2024-02-26T01:59:56;4.90;;;1.40;;
20653;SDS011;21083;50.898;4.902;2024-02-26T02:02:25;3.00;;;1.13;;
20653;SDS011;21083;50.898;4.902;2024-02-26T02:04:52;7.88;;;1.50;;
20653;SDS011;21083;50.898;4.902;2024-02-26T02:07:20;2.05;;;1.23;;
20653;SDS011;21083;50.898;4.902;2024-02-26T02:09:49;2.90;;;1.13;;
20653;SDS011;21083;50.898;4.902;2024-02-26T02:12:16;6.80;;;1.50;;
20653;SDS011;21083;50.898;4.902;2024-02-26T02:14:44;4.20;;;1.15;;
20653;SDS011;21083;50.898;4.902;2024-02-26T02:17:11;4.50;;;1.23;;
20653;SDS011;21083;50.898;4.902;2024-02-26T02:19:39;4.03;;;1.20;;
20653;SDS011;21083;50.898;4.902;2024-02-26T02:22:08;4.57;;;1.55;;
20653;SDS011;21083;50.898;4.902;2024-02-26T02:24:35;5.57;;;1.55;;
20653;SDS011;21083;50.898;4.902;2024-02-26T02:27:02;3.90;;;1.25;;
20653;SDS011;21083;50.898;4.902;2024-02-26T02:29:30;9.43;;;1.50;;
20653;SDS011;21083;50.898;4.902;2024-02-26T02:31:57;6.93;;;1.40;;
20653;SDS011;21083;50.898;4.902;2024-02-26T02:34:25;3.35;;;1.38;;
20653;SDS011;21083;50.898;4.902;2024-02-26T02:36:52;5.20;;;1.42;;
20653;SDS011;21083;50.898;4.902;2024-02-26T02:39:21;5.03;;;1.20;;
20653;SDS011;21083;50.898;4.902;2024-02-26T02:41:48;5.88;;;1.50;;
20653;SDS011;21083;50.898;4.902;2024-02-26T02:44:15;2.45;;;1.23;;
20653;SDS011;21083;50.898;4.902;2024-02-26T02:46:42;4.93;;;1.38;;
20653;SDS011;21083;50.898;4.902;2024-02-26T02:49:10;6.15;;;1.40;;
20653;SDS011;21083;50.898;4.902;2024-02-26T02:51:37;3.17;;;1.38;;
20653;SDS011;21083;50.898;4.902;2024-02-26T02:54:04;6.50;;;1.40;;
20653;SDS011;21083;50.898;4.902;2024-02-26T02:56:33;2.85;;;1.08;;
20653;SDS011;21083;50.898;4.902;2024-02-26T02:59:00;4.57;;;1.35;;
20653;SDS011;21083;50.898;4.902;2024-02-26T03:01:28;6.05;;;1.23;;
20653;SDS011;21083;50.898;4.902;2024-02-26T03:03:55;3.72;;;1.10;;
20653;SDS011;21083;50.898;4.902;2024-02-26T03:06:22;7.32;;;1.40;;
20653;SDS011;21083;50.898;4.902;2024-02-26T03:08:51;5.97;;;1.10;;
20653;SDS011;21083;50.898;4.902;2024-02-26T03:11:19;7.30;;;2.17;;
20653;SDS011;21083;50.898;4.902;2024-02-26T03:13:48;5.60;;;1.70;;
20653;SDS011;21083;50.898;4.902;2024-02-26T03:16:16;5.35;;;1.60;;
20653;SDS011;21083;50.898;4.902;2024-02-26T03:18:43;4.80;;;1.90;;
20653;SDS011;21083;50.898;4.902;2024-02-26T03:21:10;4.22;;;1.75;;
20653;SDS011;21083;50.898;4.902;2024-02-26T03:23:37;5.07;;;1.77;;
20653;SDS011;21083;50.898;4.902;2024-02-26T03:26:04;4.43;;;1.60;;
20653;SDS011;21083;50.898;4.902;2024-02-26T03:28:31;5.22;;;1.63;;
20653;SDS011;21083;50.898;4.902;2024-02-26T03:31:00;4.60;;;1.88;;
20653;SDS011;21083;50.898;4.902;2024-02-26T03:33:27;2.58;;;1.27;;
20653;SDS011;21083;50.898;4.902;2024-02-26T03:35:54;5.78;;;1.58;;
20653;SDS011;21083;50.898;4.902;2024-02-26T03:38:21;5.43;;;2.13;;
20653;SDS011;21083;50.898;4.902;2024-02-26T03:40:48;4.70;;;1.55;;
20653;SDS011;21083;50.898;4.902;2024-02-26T03:43:16;5.55;;;1.50;;
20653;SDS011;21083;50.898;4.902;2024-02-26T03:45:43;4.32;;;1.60;;
20653;SDS011;21083;50.898;4.902;2024-02-26T03:48:11;8.35;;;1.50;;
20653;SDS011;21083;50.898;4.902;2024-02-26T03:50:38;5.30;;;1.42;;
20653;SDS011;21083;50.898;4.902;2024-02-26T03:53:05;3.53;;;1.52;;
20653;SDS011;21083;50.898;4.902;2024-02-26T03:55:34;8.57;;;2.03;;
20653;SDS011;21083;50.898;4.902;2024-02-26T03:58:01;4.50;;;1.63;;
20653;SDS011;21083;50.898;4.902;2024-02-26T04:00:28;6.82;;;1.75;;
20653;SDS011;21083;50.898;4.902;2024-02-26T04:02:55;4.90;;;1.48;;
20653;SDS011;21083;50.898;4.902;2024-02-26T04:05:23;3.30;;;1.45;;
20653;SDS011;21083;50.898;4.902;2024-02-26T04:07:50;6.28;;;1.80;;
20653;SDS011;21083;50.898;4.902;2024-02-26T04:10:17;7.05;;;2.53;;
20653;SDS011;21083;50.898;4.902;2024-02-26T04:12:44;5.47;;;2.03;;
20653;SDS011;21083;50.898;4.902;2024-02-26T04:15:12;5.28;;;1.85;;
20653;SDS011;21083;50.898;4.902;2024-02-26T04:17:39;3.95;;;1.75;;
20653;SDS011;21083;50.898;4.902;2024-02-26T04:20:07;5.57;;;1.90;;
20653;SDS011;21083;50.898;4.902;2024-02-26T04:22:37;5.72;;;1.90;;
20653;SDS011;21083;50.898;4.902;2024-02-26T04:25:04;6.28;;;2.20;;
20653;SDS011;21083;50.898;4.902;2024-02-26T04:27:31;6.20;;;2.50;;
20653;SDS011;21083;50.898;4.902;2024-02-26T04:29:59;6.18;;;2.30;;
20653;SDS011;21083;50.898;4.902;2024-02-26T04:32:26;6.10;;;2.30;;
20653;SDS011;21083;50.898;4.902;2024-02-26T04:34:54;4.68;;;2.25;;
20653;SDS011;21083;50.898;4.902;2024-02-26T04:37:21;9.02;;;2.80;;
20653;SDS011;21083;50.898;4.902;2024-02-26T04:39:49;7.25;;;2.70;;
20653;SDS011;21083;50.898;4.902;2024-02-26T04:42:16;6.80;;;2.90;;
20653;SDS011;21083;50.898;4.902;2024-02-26T04:44:43;7.40;;;3.00;;
20653;SDS011;21083;50.898;4.902;2024-02-26T04:47:10;8.13;;;3.20;;
20653;SDS011;21083;50.898;4.902;2024-02-26T04:49:38;6.85;;;3.30;;
20653;SDS011;21083;50.898;4.902;2024-02-26T04:52:05;9.10;;;3.45;;
20653;SDS011;21083;50.898;4.902;2024-02-26T04:54:32;9.10;;;3.90;;
20653;SDS011;21083;50.898;4.902;2024-02-26T04:57:00;9.98;;;3.97;;
20653;SDS011;21083;50.898;4.902;2024-02-26T04:59:27;9.73;;;4.90;;
20653;SDS011;21083;50.898;4.902;2024-02-26T05:01:54;8.85;;;4.20;;
20653;SDS011;21083;50.898;4.902;2024-02-26T05:04:21;9.88;;;4.40;;
20653;SDS011;21083;50.898;4.902;2024-02-26T05:06:48;11.65;;;4.43;;
20653;SDS011;21083;50.898;4.902;2024-02-26T05:09:15;11.25;;;5.32;;
20653;SDS011;21083;50.898;4.902;2024-02-26T05:11:43;9.48;;;4.28;;
20653;SDS011;21083;50.898;4.902;2024-02-26T05:14:11;9.90;;;4.50;;
20653;SDS011;21083;50.898;4.902;2024-02-26T05:16:38;13.07;;;4.70;;
20653;SDS011;21083;50.898;4.902;2024-02-26T05:19:06;8.60;;;4.05;;
20653;SDS011;21083;50.898;4.902;2024-02-26T05:21:32;12.25;;;4.57;;
20653;SDS011;21083;50.898;4.902;2024-02-26T05:24:00;9.82;;;4.60;;
20653;SDS011;21083;50.898;4.902;2024-02-26T05:26:27;12.55;;;4.50;;
20653;SDS011;21083;50.898;4.902;2024-02-26T05:28:54;9.25;;;4.07;;
20653;SDS011;21083;50.898;4.902;2024-02-26T05:31:26;9.00;;;4.30;;
20653;SDS011;21083;50.898;4.902;2024-02-26T05:33:53;10.23;;;4.70;;
20653;SDS011;21083;50.898;4.902;2024-02-26T05:36:21;9.90;;;4.55;;
20653;SDS011;21083;50.898;4.902;2024-02-26T05:38:48;8.63;;;3.95;;
20653;SDS011;21083;50.898;4.902;2024-02-26T05:41:16;14.32;;;5.25;;
20653;SDS011;21083;50.898;4.902;2024-02-26T05:43:48;10.63;;;4.82;;
20653;SDS011;21083;50.898;4.902;2024-02-26T05:46:16;12.40;;;4.82;;
20653;SDS011;21083;50.898;4.902;2024-02-26T05:48:44;10.43;;;4.68;;
20653;SDS011;21083;50.898;4.902;2024-02-26T05:51:13;14.35;;;5.45;;
20653;SDS011;21083;50.898;4.902;2024-02-26T05:53:40;10.38;;;5.47;;
20653;SDS011;21083;50.898;4.902;2024-02-26T05:56:07;10.60;;;5.38;;
20653;SDS011;21083;50.898;4.902;2024-02-26T05:58:34;12.10;;;5.20;;
20653;SDS011;21083;50.898;4.902;2024-02-26T06:01:02;11.13;;;5.57;;
20653;SDS011;21083;50.898;4.902;2024-02-26T06:03:29;14.20;;;5.78;;
20653;SDS011;21083;50.898;4.902;2024-02-26T06:05:57;10.30;;;5.57;;
20653;SDS011;21083;50.898;4.902;2024-02-26T06:08:24;12.73;;;7.25;;
20653;SDS011;21083;50.898;4.902;2024-02-26T06:10:51;11.18;;;5.85;;
20653;SDS011;21083;50.898;4.902;2024-02-26T06:13:18;18.25;;;6.97;;
20653;SDS011;21083;50.898;4.902;2024-02-26T06:15:45;14.50;;;6.95;;
20653;SDS011;21083;50.898;4.902;2024-02-26T06:18:13;15.50;;;7.85;;
20653;SDS011;21083;50.898;4.902;2024-02-26T06:20:40;14.60;;;8.02;;
20653;SDS011;21083;50.898;4.902;2024-02-26T06:23:08;16.13;;;8.05;;
20653;SDS011;21083;50.898;4.902;2024-02-26T06:25:35;19.83;;;10.23;;
20653;SDS011;21083;50.898;4.902;2024-02-26T06:28:02;15.40;;;9.02;;
20653;SDS011;21083;50.898;4.902;2024-02-26T06:30:30;17.35;;;10.02;;
20653;SDS011;21083;50.898;4.902;2024-02-26T06:32:57;17.08;;;9.75;;
20653;SDS011;21083;50.898;4.902;2024-02-26T06:35:24;20.33;;;11.00;;
20653;SDS011;21083;50.898;4.902;2024-02-26T06:37:51;15.90;;;9.52;;
20653;SDS011;21083;50.898;4.902;2024-02-26T06:40:19;21.27;;;12.02;;
20653;SDS011;21083;50.898;4.902;2024-02-26T06:42:46;21.23;;;10.85;;
20653;SDS011;21083;50.898;4.902;2024-02-26T06:45:17;22.35;;;11.48;;
20653;SDS011;21083;50.898;4.902;2024-02-26T06:47:44;17.67;;;11.13;;
20653;SDS011;21083;50.898;4.902;2024-02-26T06:50:12;18.15;;;11.55;;
20653;SDS011;21083;50.898;4.902;2024-02-26T06:52:39;17.58;;;11.57;;
20653;SDS011;21083;50.898;4.902;2024-02-26T06:55:07;20.75;;;10.98;;
20653;SDS011;21083;50.898;4.902;2024-02-26T06:57:35;17.75;;;10.25;;
20653;SDS011;21083;50.898;4.902;2024-02-26T07:00:03;17.27;;;9.98;;
20653;SDS011;21083;50.898;4.902;2024-02-26T07:02:30;17.83;;;10.60;;
20653;SDS011;21083;50.898;4.902;2024-02-26T07:04:57;18.88;;;10.68;;
20653;SDS011;21083;50.898;4.902;2024-02-26T07:07:27;19.42;;;10.95;;
20653;SDS011;21083;50.898;4.902;2024-02-26T07:09:54;18.88;;;10.52;;
20653;SDS011;21083;50.898;4.902;2024-02-26T07:12:21;20.65;;;11.88;;
20653;SDS011;21083;50.898;4.902;2024-02-26T07:14:50;17.30;;;10.30;;
20653;SDS011;21083;50.898;4.902;2024-02-26T07:17:17;15.98;;;9.68;;
20653;SDS011;21083;50.898;4.902;2024-02-26T07:19:44;15.85;;;8.73;;
20653;SDS011;21083;50.898;4.902;2024-02-26T07:22:11;18.05;;;10.07;;
20653;SDS011;21083;50.898;4.902;2024-02-26T07:24:39;15.77;;;9.05;;
20653;SDS011;21083;50.898;4.902;2024-02-26T07:27:06;17.42;;;9.30;;
20653;SDS011;21083;50.898;4.902;2024-02-26T07:29:33;16.88;;;8.75;;
20653;SDS011;21083;50.898;4.902;2024-02-26T07:32:01;17.27;;;10.45;;
20653;SDS011;21083;50.898;4.902;2024-02-26T07:34:28;21.35;;;10.25;;
20653;SDS011;21083;50.898;4.902;2024-02-26T07:36:55;17.98;;;10.43;;
20653;SDS011;21083;50.898;4.902;2024-02-26T07:39:23;14.82;;;9.82;;
20653;SDS011;21083;50.898;4.902;2024-02-26T07:41:50;16.85;;;9.57;;
20653;SDS011;21083;50.898;4.902;2024-02-26T07:44:18;16.63;;;10.40;;
20653;SDS011;21083;50.898;4.902;2024-02-26T07:46:45;20.15;;;10.85;;
20653;SDS011;21083;50.898;4.902;2024-02-26T07:49:13;20.25;;;10.60;;
20653;SDS011;21083;50.898;4.902;2024-02-26T07:51:40;16.48;;;9.60;;
20653;SDS011;21083;50.898;4.902;2024-02-26T07:54:07;17.13;;;10.57;;
20653;SDS011;21083;50.898;4.902;2024-02-26T07:56:34;18.20;;;10.88;;
20653;SDS011;21083;50.898;4.902;2024-02-26T07:59:01;18.60;;;11.13;;
20653;SDS011;21083;50.898;4.902;2024-02-26T08:01:28;19.55;;;11.27;;
20653;SDS011;21083;50.898;4.902;2024-02-26T08:03:55;19.35;;;12.10;;
20653;SDS011;21083;50.898;4.902;2024-02-26T08:06:24;18.80;;;11.07;;
20653;SDS011;21083;50.898;4.902;2024-02-26T08:08:52;20.08;;;11.05;;
20653;SDS011;21083;50.898;4.902;2024-02-26T08:11:19;17.88;;;11.05;;
20653;SDS011;21083;50.898;4.902;2024-02-26T08:13:46;18.30;;;10.82;;
20653;SDS011;21083;50.898;4.902;2024-02-26T08:16:13;18.13;;;10.25;;
20653;SDS011;21083;50.898;4.902;2024-02-26T08:18:40;16.60;;;10.20;;
20653;SDS011;21083;50.898;4.902;2024-02-26T08:21:07;16.58;;;10.68;;
20653;SDS011;21083;50.898;4.902;2024-02-26T08:23:36;17.55;;;11.05;;
20653;SDS011;21083;50.898;4.902;2024-02-26T08:26:03;17.85;;;10.80;;
20653;SDS011;21083;50.898;4.902;2024-02-26T08:28:32;17.27;;;10.88;;
20653;SDS011;21083;50.898;4.902;2024-02-26T08:30:59;17.60;;;11.05;;
20653;SDS011;21083;50.898;4.902;2024-02-26T08:33:26;18.33;;;11.18;;
20653;SDS011;21083;50.898;4.902;2024-02-26T08:35:53;17.67;;;10.98;;
20653;SDS011;21083;50.898;4.902;2024-02-26T08:38:20;16.88;;;11.10;;
20653;SDS011;21083;50.898;4.902;2024-02-26T08:40:48;19.52;;;11.55;;
20653;SDS011;21083;50.898;4.902;2024-02-26T08:43:15;19.00;;;11.20;;
20653;SDS011;21083;50.898;4.902;2024-02-26T08:45:43;16.92;;;10.57;;
20653;SDS011;21083;50.898;4.902;2024-02-26T08:48:10;15.98;;;10.10;;
20653;SDS011;21083;50.898;4.902;2024-02-26T08:50:38;19.02;;;11.00;;
20653;SDS011;21083;50.898;4.902;2024-02-26T08:53:04;17.73;;;10.40;;
20653;SDS011;21083;50.898;4.902;2024-02-26T08:55:32;17.90;;;11.18;;
20653;SDS011;21083;50.898;4.902;2024-02-26T08:58:01;17.35;;;10.95;;
20653;SDS011;21083;50.898;4.902;2024-02-26T09:00:28;17.52;;;9.63;;
20653;SDS011;21083;50.898;4.902;2024-02-26T09:02:56;16.75;;;11.05;;
20653;SDS011;21083;50.898;4.902;2024-02-26T09:05:23;18.23;;;10.95;;
20653;SDS011;21083;50.898;4.902;2024-02-26T09:07:50;18.33;;;11.18;;
20653;SDS011;21083;50.898;4.902;2024-02-26T09:10:17;19.08;;;11.32;;
20653;SDS011;21083;50.898;4.902;2024-02-26T09:12:44;23.40;;;11.93;;
20653;SDS011;21083;50.898;4.902;2024-02-26T09:15:12;17.63;;;10.95;;
20653;SDS011;21083;50.898;4.902;2024-02-26T09:17:40;18.30;;;10.85;;
20653;SDS011;21083;50.898;4.902;2024-02-26T09:20:07;22.00;;;10.95;;
20653;SDS011;21083;50.898;4.902;2024-02-26T09:22:35;17.85;;;10.25;;
20653;SDS011;21083;50.898;4.902;2024-02-26T09:25:03;33.30;;;11.73;;
20653;SDS011;21083;50.898;4.902;2024-02-26T09:27:31;18.38;;;10.85;;
20653;SDS011;21083;50.898;4.902;2024-02-26T09:29:58;16.92;;;10.65;;
20653;SDS011;21083;50.898;4.902;2024-02-26T09:32:27;15.68;;;10.25;;
20653;SDS011;21083;50.898;4.902;2024-02-26T09:34:54;17.90;;;10.13;;
20653;SDS011;21083;50.898;4.902;2024-02-26T09:37:21;17.25;;;10.60;;
20653;SDS011;21083;50.898;4.902;2024-02-26T09:39:48;15.52;;;9.27;;
20653;SDS011;21083;50.898;4.902;2024-02-26T09:42:15;16.63;;;9.15;;
20653;SDS011;21083;50.898;4.902;2024-02-26T09:44:45;14.38;;;8.80;;
20653;SDS011;21083;50.898;4.902;2024-02-26T09:47:13;13.07;;;8.18;;
20653;SDS011;21083;50.898;4.902;2024-02-26T09:49:45;15.38;;;8.98;;
20653;SDS011;21083;50.898;4.902;2024-02-26T09:52:14;13.20;;;8.00;;
20653;SDS011;21083;50.898;4.902;2024-02-26T09:54:42;14.15;;;7.40;;
20653;SDS011;21083;50.898;4.902;2024-02-26T09:57:13;13.52;;;8.20;;
20653;SDS011;21083;50.898;4.902;2024-02-26T09:59:43;14.02;;;8.30;;
20653;SDS011;21083;50.898;4.902;2024-02-26T10:02:12;13.75;;;8.07;;
20653;SDS011;21083;50.898;4.902;2024-02-26T10:04:41;14.82;;;7.65;;
20653;SDS011;21083;50.898;4.902;2024-02-26T10:07:11;13.98;;;8.10;;
20653;SDS011;21083;50.898;4.902;2024-02-26T10:09:39;15.45;;;8.73;;
20653;SDS011;21083;50.898;4.902;2024-02-26T10:12:08;14.02;;;7.80;;
20653;SDS011;21083;50.898;4.902;2024-02-26T10:14:36;13.48;;;7.63;;
20653;SDS011;21083;50.898;4.902;2024-02-26T10:17:04;15.48;;;8.30;;
20653;SDS011;21083;50.898;4.902;2024-02-26T10:19:34;15.35;;;8.43;;
20653;SDS011;21083;50.898;4.902;2024-02-26T10:22:01;17.95;;;9.93;;
20653;SDS011;21083;50.898;4.902;2024-02-26T10:24:31;17.55;;;9.90;;
20653;SDS011;21083;50.898;4.902;2024-02-26T10:26:59;17.33;;;9.70;;
20653;SDS011;21083;50.898;4.902;2024-02-26T10:29:26;17.33;;;9.85;;
20653;SDS011;21083;50.898;4.902;2024-02-26T10:31:53;17.63;;;9.27;;
20653;SDS011;21083;50.898;4.902;2024-02-26T10:34:20;20.80;;;11.25;;
20653;SDS011;21083;50.898;4.902;2024-02-26T10:36:48;19.85;;;10.32;;
20653;SDS011;21083;50.898;4.902;2024-02-26T10:39:15;16.08;;;9.38;;
20653;SDS011;21083;50.898;4.902;2024-02-26T10:41:44;17.38;;;9.38;;
20653;SDS011;21083;50.898;4.902;2024-02-26T10:44:11;16.35;;;10.25;;
20653;SDS011;21083;50.898;4.902;2024-02-26T10:46:40;17.38;;;9.98;;
20653;SDS011;21083;50.898;4.902;2024-02-26T10:49:12;16.00;;;9.82;;
20653;SDS011;21083;50.898;4.902;2024-02-26T10:51:43;18.13;;;10.02;;
20653;SDS011;21083;50.898;4.902;2024-02-26T10:54:12;16.45;;;9.38;;
20653;SDS011;21083;50.898;4.902;2024-02-26T10:56:43;15.38;;;9.73;;
20653;SDS011;21083;50.898;4.902;2024-02-26T10:59:13;15.25;;;9.25;;
20653;SDS011;21083;50.898;4.902;2024-02-26T11:01:45;14.57;;;9.43;;
20653;SDS011;21083;50.898;4.902;2024-02-26T11:04:14;15.90;;;9.20;;
20653;SDS011;21083;50.898;4.902;2024-02-26T11:06:42;13.45;;;8.35;;
20653;SDS011;21083;50.898;4.902;2024-02-26T11:09:11;13.85;;;8.13;;
20653;SDS011;21083;50.898;4.902;2024-02-26T11:11:39;14.25;;;8.05;;
20653;SDS011;21083;50.898;4.902;2024-02-26T11:14:09;15.18;;;8.73;;
20653;SDS011;21083;50.898;4.902;2024-02-26T11:16:38;13.57;;;8.15;;
20653;SDS011;21083;50.898;4.902;2024-02-26T11:19:06;14.30;;;7.97;;
20653;SDS011;21083;50.898;4.902;2024-02-26T11:21:35;13.93;;;7.90;;
20653;SDS011;21083;50.898;4.902;2024-02-26T11:24:07;13.32;;;7.47;;
20653;SDS011;21083;50.898;4.902;2024-02-26T11:26:36;15.68;;;9.27;;
20653;SDS011;21083;50.898;4.902;2024-02-26T11:29:11;12.63;;;7.53;;
20653;SDS011;21083;50.898;4.902;2024-02-26T11:31:41;15.88;;;8.25;;
20653;SDS011;21083;50.898;4.902;2024-02-26T11:34:08;16.23;;;7.50;;
20653;SDS011;21083;50.898;4.902;2024-02-26T11:36:37;13.05;;;7.60;;
20653;SDS011;21083;50.898;4.902;2024-02-26T11:39:04;13.85;;;7.82;;
20653;SDS011;21083;50.898;4.902;2024-02-26T11:41:32;12.32;;;7.13;;
20653;SDS011;21083;50.898;4.902;2024-02-26T11:44:01;12.65;;;7.50;;
20653;SDS011;21083;50.898;4.902;2024-02-26T11:46:31;13.30;;;7.43;;
20653;SDS011;21083;50.898;4.902;2024-02-26T11:48:59;13.38;;;7.15;;
20653;SDS011;21083;50.898;4.902;2024-02-26T11:51:27;11.85;;;6.95;;
20653;SDS011;21083;50.898;4.902;2024-02-26T11:53:58;11.70;;;6.60;;
20653;SDS011;21083;50.898;4.902;2024-02-26T11:56:25;12.05;;;6.93;;
20653;SDS011;21083;50.898;4.902;2024-02-26T11:58:58;12.63;;;6.97;;
20653;SDS011;21083;50.898;4.902;2024-02-26T12:01:46;11.85;;;6.57;;
20653;SDS011;21083;50.898;4.902;2024-02-26T12:04:18;11.90;;;7.03;;
20653;SDS011;21083;50.898;4.902;2024-02-26T12:06:48;13.15;;;6.80;;
20653;SDS011;21083;50.898;4.902;2024-02-26T12:09:33;12.75;;;6.78;;
20653;SDS011;21083;50.898;4.902;2024-02-26T12:12:02;12.23;;;6.78;;
20653;SDS011;21083;50.898;4.902;2024-02-26T12:14:32;11.30;;;6.38;;
20653;SDS011;21083;50.898;4.902;2024-02-26T12:17:02;12.63;;;6.57;;
20653;SDS011;21083;50.898;4.902;2024-02-26T12:19:32;11.00;;;6.30;;
20653;SDS011;21083;50.898;4.902;2024-02-26T12:22:00;13.45;;;6.50;;
20653;SDS011;21083;50.898;4.902;2024-02-26T12:24:27;11.80;;;6.78;;
20653;SDS011;21083;50.898;4.902;2024-02-26T12:26:54;12.45;;;6.43;;
20653;SDS011;21083;50.898;4.902;2024-02-26T12:29:23;10.25;;;5.75;;
20653;SDS011;21083;50.898;4.902;2024-02-26T12:31:50;12.48;;;6.63;;
20653;SDS011;21083;50.898;4.902;2024-02-26T12:34:18;12.18;;;6.82;;
20653;SDS011;21083;50.898;4.902;2024-02-26T12:36:46;13.68;;;7.65;;
20653;SDS011;21083;50.898;4.902;2024-02-26T12:39:13;15.35;;;9.18;;
20653;SDS011;21083;50.898;4.902;2024-02-26T12:41:40;13.30;;;7.75;;
20653;SDS011;21083;50.898;4.902;2024-02-26T12:44:11;13.30;;;7.30;;
20653;SDS011;21083;50.898;4.902;2024-02-26T12:46:38;12.80;;;7.28;;
20653;SDS011;21083;50.898;4.902;2024-02-26T12:49:06;13.20;;;7.25;;
20653;SDS011;21083;50.898;4.902;2024-02-26T12:51:34;13.68;;;7.60;;
20653;SDS011;21083;50.898;4.902;2024-02-26T12:54:01;12.52;;;7.72;;
20653;SDS011;21083;50.898;4.902;2024-02-26T12:56:28;12.05;;;7.57;;
20653;SDS011;21083;50.898;4.902;2024-02-26T12:58:56;13.95;;;8.32;;
20653;SDS011;21083;50.898;4.902;2024-02-26T13:01:23;15.45;;;9.25;;
20653;SDS011;21083;50.898;4.902;2024-02-26T13:03:51;15.77;;;9.55;;
20653;SDS011;21083;50.898;4.902;2024-02-26T13:06:19;15.50;;;9.88;;
20653;SDS011;21083;50.898;4.902;2024-02-26T13:08:49;18.65;;;11.23;;
20653;SDS011;21083;50.898;4.902;2024-02-26T13:11:16;17.85;;;10.40;;
20653;SDS011;21083;50.898;4.902;2024-02-26T13:13:47;14.63;;;8.73;;
20653;SDS011;21083;50.898;4.902;2024-02-26T13:16:15;13.02;;;7.97;;
20653;SDS011;21083;50.898;4.902;2024-02-26T13:18:42;13.25;;;8.68;;
20653;SDS011;21083;50.898;4.902;2024-02-26T13:21:10;13.18;;;8.27;;
20653;SDS011;21083;50.898;4.902;2024-02-26T13:23:38;14.73;;;8.77;;
20653;SDS011;21083;50.898;4.902;2024-02-26T13:26:08;13.15;;;8.20;;
20653;SDS011;21083;50.898;4.902;2024-02-26T13:28:40;14.20;;;8.75;;
20653;SDS011;21083;50.898;4.902;2024-02-26T13:31:07;14.13;;;8.43;;
20653;SDS011;21083;50.898;4.902;2024-02-26T13:33:35;12.60;;;8.25;;
20653;SDS011;21083;50.898;4.902;2024-02-26T13:36:02;13.77;;;8.45;;
20653;SDS011;21083;50.898;4.902;2024-02-26T13:38:30;14.13;;;8.90;;
20653;SDS011;21083;50.898;4.902;2024-02-26T13:40:57;16.67;;;9.70;;
20653;SDS011;21083;50.898;4.902;2024-02-26T13:43:26;15.15;;;9.30;;
20653;SDS011;21083;50.898;4.902;2024-02-26T13:45:54;16.55;;;10.38;;
20653;SDS011;21083;50.898;4.902;2024-02-26T13:48:21;15.50;;;9.15;;
20653;SDS011;21083;50.898;4.902;2024-02-26T13:50:49;16.95;;;10.02;;
20653;SDS011;21083;50.898;4.902;2024-02-26T13:53:16;18.00;;;10.50;;
20653;SDS011;21083;50.898;4.902;2024-02-26T13:55:43;17.85;;;9.80;;
20653;SDS011;21083;50.898;4.902;2024-02-26T13:58:11;17.27;;;10.70;;
20653;SDS011;21083;50.898;4.902;2024-02-26T14:00:41;18.58;;;11.18;;
20653;SDS011;21083;50.898;4.902;2024-02-26T14:03:08;18.73;;;10.70;;
20653;SDS011;21083;50.898;4.902;2024-02-26T14:05:36;15.43;;;10.13;;
20653;SDS011;21083;50.898;4.902;2024-02-26T14:08:03;21.33;;;11.55;;
20653;SDS011;21083;50.898;4.902;2024-02-26T14:10:31;18.42;;;11.55;;
20653;SDS011;21083;50.898;4.902;2024-02-26T14:12:58;18.90;;;11.75;;
20653;SDS011;21083;50.898;4.902;2024-02-26T14:15:26;20.27;;;12.13;;
20653;SDS011;21083;50.898;4.902;2024-02-26T14:17:56;20.15;;;12.80;;
20653;SDS011;21083;50.898;4.902;2024-02-26T14:20:24;20.70;;;12.10;;
20653;SDS011;21083;50.898;4.902;2024-02-26T14:22:52;19.05;;;12.35;;
20653;SDS011;21083;50.898;4.902;2024-02-26T14:25:19;20.42;;;11.70;;
20653;SDS011;21083;50.898;4.902;2024-02-26T14:27:46;20.60;;;12.35;;
20653;SDS011;21083;50.898;4.902;2024-02-26T14:30:14;21.83;;;13.75;;
20653;SDS011;21083;50.898;4.902;2024-02-26T14:32:42;21.08;;;13.30;;
20653;SDS011;21083;50.898;4.902;2024-02-26T14:35:10;23.98;;;14.90;;
20653;SDS011;21083;50.898;4.902;2024-02-26T14:37:38;24.40;;;15.25;;
20653;SDS011;21083;50.898;4.902;2024-02-26T14:40:06;27.52;;;16.52;;